Terminal Aerodrome Forecast
Issued by NWS

Home | Current Version | Previous Version | Text Only | Print | Product List | Glossary On
Versions: 1 2 3 4 5 6 7 8 9 10 11 12 13 14 15 16 17
000
FTUS42 KMHX 232300
TAFISO
TAF
KISO 232320Z 2400/2424 22008KT P6SM SCT040
     FM240400 21004KT P6SM SCT030
     FM240800 24003KT 4SM BR SKC
     FM241300 25007KT P6SM SCT040
     FM241800 29008KT P6SM VCTS SCT040CB
     FM242000 33009KT P6SM VCTS BKN030CB
      AMD LTD TO CLD VIS AND WIND=

USA.gov is the U.S. government's official web portal to all federal, state and local government web resources and services.